Atar, Mauritania
Current Conditions -  °F | °C
As of 5:00 PM on Tuesday 21 Oct 2014 (Local Time) from GQPA Reporting Station
Clear Clear  
Wind Chill: 102°   Ceiling: Unl
Heat Index: 102°   Visibility: 5mi
Dew Point: 50°   Wind: 7mph
Humidity: 17%   Direction: 60°ENE
Pressure: 29.91"   Gusts: NA
Location:  20.51°N, 13.05°W
Report Text: GQPA 211700Z 06006KT 8000 NSC 39/10 Q1013
Loading
Personal Weather Stations






























Interactive Weather Map
Tropical Storm Tracking
New forecast layout! Learn more

10-Day Weather Forecast

Advertisements
Track Severe Weather on mobile